Terminal Aerodrome Forecast
Issued by NWS

Home | Current Version | Previous Version | Text Only | Print | Product List | Glossary On
Versions: 1 2 3 4 5 6 7 8 9 10 11 12 13 14
736
FTUS46 KLOX 250527
TAFSBP
TAF
KSBP 250527Z 2506/2606 32010KT P6SM BKN200
     FM251100 32007KT P6SM BKN020
     FM251500 32015G25KT P6SM SCT020 BKN200
     FM251900 32025G35KT P6SM BKN200
     FM260300 32015KT P6SM SCT200=

USA.gov is the U.S. government's official web portal to all federal, state and local government web resources and services.